KCRW Airport Diagram

We have created a template for each of the higher traffic airports in the vZID airspace. They include KCMH, KCRW, KCVG, KDAY, KIND, KLEX and KSDF. You wil find usefull information including the airport diagram, weather, and specific airport procedures.

KCRW Weather

[Source: ADDS]
METAR
KCRW 241554Z 00000KT 10SM CLR 09/M03 A3000 RMK AO2 SLP165 T00891033 =
TAF
KCRW 241435Z 2415/2512 00000KT P6SM SKC FM241700 20003KT P6SM SKC FM250300 18003KT P6SM FEW250 =
JSN Epic template designed by JoomlaShine.com